Time;durP1;ratioP1;P1;durP2;ratioP2;P2;SDS_P1;SDS_P2;PMS_P1;PMS_P2;Temp;Humidity;BMP_temperature;BMP_pressure;BME280_temperature;BME280_humidity;BME280_pressure;Samples;Min_cycle;Max_cycle;Signal;HPM_P1;HPM_P2
2022/08/14 00:02:29;;;;;;;8.55;7.75;;;;;;;18.72;77.89;100958.69;5223701;28;20051;-67
2022/08/14 00:05:00;;;;;;;9.40;7.97;;;;;;;18.69;78.49;100960.88;5216708;28;20484;-67
2022/08/14 00:07:34;;;;;;;10.10;7.95;;;;;;;18.68;77.32;100957.34;5215583;28;20076;-67
2022/08/14 00:10:08;;;;;;;9.65;8.20;;;;;;;18.69;77.25;100952.78;5214104;28;20116;-67
2022/08/14 00:12:45;;;;;;;9.65;8.75;;;;;;;18.66;80.81;100950.38;5207269;28;20057;-67
2022/08/14 00:15:20;;;;;;;9.95;8.70;;;;;;;18.63;79.07;100945.34;5211578;28;20544;-67
2022/08/14 00:17:52;;;;;;;10.52;9.18;;;;;;;18.59;81.00;100942.97;5213163;28;20026;-67
2022/08/14 00:20:30;;;;;;;12.63;9.55;;;;;;;18.62;79.92;100936.41;5214152;28;20068;-67
2022/08/14 00:23:04;;;;;;;11.50;9.68;;;;;;;18.49;79.86;100939.59;5218195;28;20487;-67
2022/08/14 00:25:36;;;;;;;13.43;9.00;;;;;;;18.54;77.35;100937.22;5226816;28;20041;-67
2022/08/14 00:28:09;;;;;;;11.05;9.95;;;;;;;18.49;79.93;100936.88;5219470;28;20478;-67
2022/08/14 00:30:41;;;;;;;10.70;9.40;;;;;;;18.45;80.07;100931.97;5213697;28;20384;-67
2022/08/14 00:33:13;;;;;;;10.73;9.70;;;;;;;18.39;79.65;100922.69;5236283;28;20039;-67
2022/08/14 00:35:45;;;;;;;10.15;9.15;;;;;;;18.34;80.79;100928.56;5218674;28;20036;-67
2022/08/14 00:38:17;;;;;;;12.02;9.38;;;;;;;18.31;80.56;100917.25;5222325;28;20041;-67
2022/08/14 00:40:49;;;;;;;10.63;9.57;;;;;;;18.26;80.63;100919.63;5217627;28;20110;-67
2022/08/14 00:43:21;;;;;;;12.55;9.85;;;;;;;18.22;80.73;100914.56;5218637;28;20620;-67
2022/08/14 00:45:52;;;;;;;11.00;9.88;;;;;;;18.18;78.36;100918.59;5218453;28;20405;-67
2022/08/14 00:48:23;;;;;;;12.02;10.82;;;;;;;18.18;81.92;100904.25;5240021;28;20022;-67
2022/08/14 00:50:55;;;;;;;10.82;9.85;;;;;;;18.15;82.75;100900.00;5218244;28;20064;-67
2022/08/14 00:53:26;;;;;;;11.52;10.43;;;;;;;18.12;83.04;100905.75;5236937;28;20029;-67
2022/08/14 00:55:57;;;;;;;11.27;10.07;;;;;;;18.13;83.06;100904.75;5231335;28;20038;-67
2022/08/14 00:58:31;;;;;;;13.07;10.68;;;;;;;18.03;83.01;100899.47;5219490;28;20509;-67
2022/08/14 01:01:06;;;;;;;;;;;;;;;18.16;79.34;100893.63;5219117;28;20025;-67
2022/08/14 01:03:39;;;;;;;11.80;10.60;;;;;;;17.98;82.68;100893.72;5210802;28;19957;-67
2022/08/14 01:06:15;;;;;;;11.98;10.77;;;;;;;17.92;82.14;100888.16;5208681;28;20091;-67
2022/08/14 01:08:49;;;;;;;11.68;10.18;;;;;;;17.97;84.05;100886.66;5213441;28;20022;-67
2022/08/14 01:11:20;;;;;;;11.55;10.43;;;;;;;17.95;80.99;100885.09;5222851;28;20038;-67
2022/08/14 01:13:56;;;;;;;12.50;10.70;;;;;;;17.80;82.82;100879.50;5213771;28;20032;-67
2022/08/14 01:16:29;;;;;;;17.75;10.57;;;;;;;17.73;84.38;100868.47;5226106;28;20025;-67
2022/08/14 01:21:50;;;;;;;12.80;11.52;;;;;;;17.71;84.62;100865.09;5209639;28;20026;-67
2022/08/14 01:24:22;;;;;;;12.10;10.90;;;;;;;17.63;82.71;100867.78;5215302;28;20037;-67
2022/08/14 01:26:53;;;;;;;13.85;12.30;;;;;;;17.66;84.69;100870.16;5206518;28;20038;-67
2022/08/14 01:29:27;;;;;;;12.48;11.23;;;;;;;17.59;82.85;100872.66;5202615;28;20090;-67
2022/08/14 01:32:02;;;;;;;;;;;;;;;17.71;80.60;100869.66;5225538;28;20463;-67
2022/08/14 01:34:34;;;;;;;11.25;10.15;;;;;;;17.55;85.45;100876.69;5206597;28;20358;-67
2022/08/14 01:37:06;;;;;;;11.80;10.55;;;;;;;17.49;85.21;100868.38;5240167;28;20042;-67
2022/08/14 01:39:37;;;;;;;11.65;10.52;;;;;;;17.42;85.00;100866.34;5209255;28;20037;-67
2022/08/14 01:42:09;;;;;;;13.20;10.60;;;;;;;17.42;86.47;100868.19;5224769;28;20474;-67
2022/08/14 01:44:40;;;;;;;11.57;10.48;;;;;;;17.34;83.46;100868.19;5202813;28;20034;-67
2022/08/14 01:47:12;;;;;;;11.90;10.52;;;;;;;17.31;85.85;100868.47;5219606;28;20572;-67
2022/08/14 01:49:44;;;;;;;11.05;9.90;;;;;;;17.29;86.90;100876.72;5219149;28;20432;-66
2022/08/14 01:52:16;;;;;;;11.63;10.35;;;;;;;17.23;86.29;100878.22;5207855;28;20034;-66
2022/08/14 01:54:48;;;;;;;12.00;9.90;;;;;;;17.20;85.11;100880.38;5209267;28;20021;-66
2022/08/14 01:57:19;;;;;;;10.43;9.43;;;;;;;17.22;86.23;100871.16;5205627;28;20041;-66
2022/08/14 01:59:55;;;;;;;11.43;10.32;;;;;;;17.14;85.70;100871.06;5210500;28;20154;-66
2022/08/14 02:02:27;;;;;;;10.57;9.15;;;;;;;17.12;81.67;100862.31;5220464;28;20587;-66
2022/08/14 02:04:59;;;;;;;9.82;8.93;;;;;;;17.08;85.22;100857.41;5214712;28;20117;-66
2022/08/14 02:07:31;;;;;;;10.93;9.82;;;;;;;17.10;88.31;100858.94;5210866;28;20504;-67
2022/08/14 02:10:05;;;;;;;11.80;9.80;;;;;;;17.03;86.15;100858.72;5208667;28;20026;-67
2022/08/14 02:12:36;;;;;;;10.05;9.15;;;;;;;17.02;87.20;100854.34;5209935;28;20654;-67
2022/08/14 02:15:09;;;;;;;10.35;9.18;;;;;;;17.00;87.71;100858.19;5206341;28;20021;-67
2022/08/14 02:17:41;;;;;;;10.85;9.75;;;;;;;17.08;90.24;100858.25;5245589;28;20034;-67
2022/08/14 02:20:12;;;;;;;10.75;9.43;;;;;;;17.04;88.09;100856.88;5204935;28;20065;-67
2022/08/14 02:22:44;;;;;;;10.20;9.02;;;;;;;17.00;86.89;100853.66;5222857;28;20033;-67
2022/08/14 02:25:15;;;;;;;9.85;8.88;;;;;;;17.01;86.88;100847.28;5216255;28;20467;-67
2022/08/14 02:27:47;;;;;;;10.23;9.18;;;;;;;16.98;87.76;100847.56;5206614;28;20030;-67
2022/08/14 02:30:19;;;;;;;10.60;9.43;;;;;;;16.96;88.83;100849.59;5205810;28;20040;-67
2022/08/14 02:32:51;;;;;;;14.25;9.45;;;;;;;16.91;89.23;100851.91;5214822;28;20021;-67
2022/08/14 02:35:26;;;;;;;10.25;9.15;;;;;;;16.85;86.55;100852.53;5234747;28;20054;-67
2022/08/14 02:37:57;;;;;;;10.00;8.98;;;;;;;16.88;88.75;100840.63;5207135;28;20466;-67
2022/08/14 02:40:31;;;;;;;9.35;8.45;;;;;;;16.85;88.63;100842.59;5211305;28;20036;-67
2022/08/14 02:43:05;;;;;;;12.65;9.00;;;;;;;16.91;89.15;100842.97;5232750;28;20373;-67
2022/08/14 02:45:36;;;;;;;10.65;8.77;;;;;;;16.83;88.52;100843.78;5206137;28;20565;-67
2022/08/14 02:48:08;;;;;;;9.60;8.63;;;;;;;16.88;89.93;100841.47;5209596;28;20030;-67
2022/08/14 02:50:41;;;;;;;9.80;8.80;;;;;;;16.84;90.07;100834.69;5205346;28;20041;-67
2022/08/14 02:53:12;;;;;;;10.40;8.07;;;;;;;16.78;88.21;100837.97;5234047;28;20049;-67
2022/08/14 02:55:44;;;;;;;10.63;9.10;;;;;;;16.70;86.85;100838.75;5207332;28;20514;-67
2022/08/14 02:58:16;;;;;;;11.07;8.52;;;;;;;16.74;89.47;100842.84;5206539;28;20382;-67
2022/08/14 03:00:48;;;;;;;10.88;8.50;;;;;;;16.73;88.67;100843.00;5209150;28;20027;-67
2022/08/14 03:03:22;;;;;;;10.40;8.50;;;;;;;16.66;88.50;100837.38;5211496;28;20033;-67
2022/08/14 03:05:53;;;;;;;12.80;8.85;;;;;;;16.69;89.61;100833.56;5211129;28;20404;-67
2022/08/14 03:08:30;;;;;;;16.63;9.55;;;;;;;16.63;89.07;100830.47;5216284;28;20041;-67
2022/08/14 03:11:11;;;;;;;11.13;9.48;;;;;;;16.57;88.56;100825.72;5223937;28;20276;-67
2022/08/14 03:13:44;;;;;;;12.15;10.32;;;;;;;16.60;90.64;100821.84;5224817;28;20029;-67
2022/08/14 03:16:21;;;;;;;12.65;9.85;;;;;;;16.52;90.32;100827.19;5231626;28;20042;-67
2022/08/14 03:18:59;;;;;;;11.50;10.30;;;;;;;16.52;90.19;100825.34;5220509;28;20030;-67
2022/08/14 03:21:31;;;;;;;12.00;10.50;;;;;;;16.44;90.41;100828.81;5223105;28;20030;-67
2022/08/14 03:24:13;;;;;;;15.07;10.27;;;;;;;16.41;90.09;100822.88;5222278;28;20045;-67
2022/08/14 03:26:46;;;;;;;12.40;11.13;;;;;;;16.39;90.46;100839.19;5225278;28;20034;-67
2022/08/14 03:29:19;;;;;;;11.57;10.35;;;;;;;16.37;90.68;100824.22;5200470;28;20022;-67
2022/08/14 03:31:50;;;;;;;12.23;10.98;;;;;;;16.39;90.71;100814.97;5218250;28;20022;-67
2022/08/14 03:34:22;;;;;;;12.32;10.63;;;;;;;16.29;89.25;100822.28;5220158;28;20123;-67
2022/08/14 03:36:55;;;;;;;12.68;10.70;;;;;;;16.36;92.21;100817.16;5216756;28;20053;-66
2022/08/14 03:39:27;;;;;;;13.98;10.60;;;;;;;16.29;91.15;100814.22;5210367;28;20388;-67
2022/08/14 03:41:58;;;;;;;13.38;10.68;;;;;;;16.21;90.61;100806.06;5225955;28;20051;-67
2022/08/14 03:44:31;;;;;;;14.13;10.43;;;;;;;16.16;89.35;100798.44;5216675;28;20464;-67
2022/08/14 03:47:03;;;;;;;11.50;9.90;;;;;;;16.15;88.48;100804.84;5215253;28;20026;-67
2022/08/14 03:49:34;;;;;;;13.40;10.65;;;;;;;16.25;93.17;100808.28;5212026;28;20079;-67
2022/08/14 03:52:06;;;;;;;13.40;10.27;;;;;;;16.23;92.32;100814.84;5206197;28;20083;-67
2022/08/14 03:54:38;;;;;;;11.63;10.00;;;;;;;16.16;91.36;100814.59;5206592;28;20074;-67
2022/08/14 03:57:09;;;;;;;11.75;10.43;;;;;;;16.14;93.42;100811.22;5217334;28;20464;-68
2022/08/14 03:59:42;;;;;;;12.80;10.68;;;;;;;16.08;91.94;100812.69;5206909;28;20054;-67
2022/08/14 04:02:13;;;;;;;11.77;10.57;;;;;;;16.12;93.79;100812.38;5217044;28;20030;-67
2022/08/14 04:04:44;;;;;;;12.63;10.85;;;;;;;16.04;91.88;100810.47;5227945;28;20277;-67
2022/08/14 04:07:16;;;;;;;12.32;10.75;;;;;;;16.02;91.20;100809.78;5207629;28;20045;-67
2022/08/14 04:09:47;;;;;;;12.55;11.30;;;;;;;15.98;92.64;100811.91;5231127;28;20491;-67
2022/08/14 04:12:20;;;;;;;14.77;11.60;;;;;;;15.94;92.20;100796.25;5224611;28;20083;-67
2022/08/14 04:14:51;;;;;;;12.55;11.20;;;;;;;15.96;92.67;100803.16;5210166;28;20525;-67
2022/08/14 04:17:23;;;;;;;12.82;11.52;;;;;;;15.94;92.37;100805.16;5206638;28;20034;-67
2022/08/14 04:19:54;;;;;;;13.70;12.05;;;;;;;15.94;94.55;100793.56;5211871;28;20388;-67
2022/08/14 04:22:26;;;;;;;14.73;12.63;;;;;;;15.88;92.66;100798.53;5237785;28;20027;-67
2022/08/14 04:25:00;;;;;;;14.50;12.63;;;;;;;15.84;92.48;100797.16;5247564;28;20463;-67
2022/08/14 04:27:31;;;;;;;13.75;12.35;;;;;;;15.84;93.52;100797.16;5227262;28;20041;-67
2022/08/14 04:30:04;;;;;;;15.05;13.13;;;;;;;15.80;93.91;100787.72;5214239;28;20042;-67
2022/08/14 04:32:35;;;;;;;14.10;12.60;;;;;;;15.83;94.28;100795.47;5222458;28;20025;-67
2022/08/14 04:35:07;;;;;;;14.43;13.02;;;;;;;15.83;94.68;100789.25;5221205;28;20349;-67
2022/08/14 04:43:37;;;;;;;15.38;12.50;;;;;;;15.76;94.14;100780.94;5216819;28;20042;-67
2022/08/14 04:46:16;;;;;;;15.30;12.70;;;;;;;15.76;93.66;100783.63;5210864;28;20037;-67
2022/08/14 04:48:49;;;;;;;17.70;13.43;;;;;;;15.78;94.55;100780.78;5228467;28;20046;-67
2022/08/14 04:51:26;;;;;;;14.20;12.80;;;;;;;15.75;93.51;100779.25;5213410;28;20113;-67
2022/08/14 04:53:59;;;;;;;14.75;13.20;;;;;;;15.75;94.45;100773.88;5211787;28;20036;-67
2022/08/14 04:56:30;;;;;;;13.48;12.10;;;;;;;15.74;94.33;100776.69;5215250;28;20022;-68
2022/08/14 04:59:05;;;;;;;14.32;12.82;;;;;;;15.74;95.14;100769.47;5226042;28;20087;-67
2022/08/14 05:01:43;;;;;;;14.25;12.77;;;;;;;15.72;94.15;100774.13;5218772;28;20026;-67
2022/08/14 05:04:16;;;;;;;13.93;12.52;;;;;;;15.75;95.90;100767.66;5223096;28;20117;-67
2022/08/14 05:06:50;;;;;;;13.57;12.18;;;;;;;15.76;95.35;100758.56;5231466;28;20096;-67
2022/08/14 05:09:24;;;;;;;13.82;12.43;;;;;;;15.81;97.69;100765.19;5226306;28;20646;-67
2022/08/14 05:11:56;;;;;;;13.27;11.98;;;;;;;15.77;95.93;100766.47;5207791;28;20383;-67
2022/08/14 05:14:28;;;;;;;21.58;14.05;;;;;;;15.90;93.82;100768.81;5213936;28;20078;-67
2022/08/14 05:16:59;;;;;;;13.70;11.98;;;;;;;15.86;96.23;100764.72;5247837;28;20475;-67
2022/08/14 05:19:30;;;;;;;14.05;12.65;;;;;;;15.88;97.17;100760.88;5240867;28;20130;-67
2022/08/14 05:22:02;;;;;;;13.93;12.20;;;;;;;15.90;95.97;100767.94;5237864;28;20362;-67
2022/08/14 05:24:34;;;;;;;12.80;11.48;;;;;;;15.95;98.11;100769.16;5222646;28;20634;-67
2022/08/14 05:27:05;;;;;;;12.82;11.52;;;;;;;15.95;98.24;100768.31;5244123;28;20026;-67
2022/08/14 05:29:36;;;;;;;13.27;11.88;;;;;;;15.93;96.67;100764.94;5221446;28;20025;-68
2022/08/14 05:32:07;;;;;;;13.38;12.07;;;;;;;16.04;98.18;100762.03;5233999;28;20028;-67
2022/08/14 05:34:39;;;;;;;12.95;11.65;;;;;;;15.98;96.56;100758.09;5219726;28;20032;-67
2022/08/14 05:37:11;;;;;;;13.23;11.82;;;;;;;16.04;96.91;100767.41;5212644;28;20029;-67
2022/08/14 05:39:43;;;;;;;13.57;12.27;;;;;;;16.11;98.99;100765.78;5239694;28;20390;-67
2022/08/14 05:42:15;;;;;;;13.05;11.80;;;;;;;16.17;98.54;100772.41;5245537;28;20054;-67
2022/08/14 05:44:47;;;;;;;13.10;11.70;;;;;;;16.20;98.93;100766.69;5241197;28;20498;-68
2022/08/14 05:47:18;;;;;;;13.45;12.15;;;;;;;16.24;99.25;100762.69;5257421;28;20026;-67
2022/08/14 05:49:49;;;;;;;13.35;11.93;;;;;;;16.28;99.87;100753.31;5248082;28;20083;-67
2022/08/14 05:52:21;;;;;;;14.80;12.18;;;;;;;16.34;99.86;100746.41;5239888;28;20042;-67
2022/08/14 05:54:52;;;;;;;13.43;11.90;;;;;;;16.29;99.09;100751.44;5250861;28;20057;-68
2022/08/14 05:57:23;;;;;;;14.02;12.73;;;;;;;16.41;100.00;100755.56;5249184;28;20057;-68
2022/08/14 05:59:55;;;;;;;14.27;11.80;;;;;;;16.45;99.67;100759.63;5240469;28;20121;-66
2022/08/14 06:02:26;;;;;;;13.20;11.68;;;;;;;16.44;99.73;100756.09;5227943;28;20031;-66
2022/08/14 06:04:57;;;;;;;12.52;11.27;;;;;;;16.62;100.00;100761.44;5232460;28;20129;-65
2022/08/14 06:07:29;;;;;;;12.65;11.27;;;;;;;16.53;97.67;100750.75;5212099;28;20066;-65
2022/08/14 06:10:00;;;;;;;13.30;11.20;;;;;;;16.59;100.00;100756.38;5206702;28;20026;-65
2022/08/14 06:12:32;;;;;;;13.60;11.57;;;;;;;16.69;100.00;100766.19;5209659;28;20030;-65
2022/08/14 06:15:05;;;;;;;13.93;11.07;;;;;;;16.70;98.13;100765.19;5205838;28;20536;-65
2022/08/14 06:17:47;;;;;;;13.77;12.43;;;;;;;16.79;100.00;100753.44;5199605;28;20044;-65
2022/08/14 06:20:19;;;;;;;11.50;10.50;;;;;;;16.84;96.26;100752.00;5215526;28;20607;-65
2022/08/14 06:22:50;;;;;;;12.15;10.68;;;;;;;16.87;99.83;100761.59;5201987;28;20030;-64
2022/08/14 06:25:22;;;;;;;15.48;10.70;;;;;;;16.95;99.34;100755.41;5206859;28;20092;-64
2022/08/14 06:27:54;;;;;;;14.07;10.95;;;;;;;17.08;99.60;100752.28;5209992;28;20391;-65
2022/08/14 06:30:29;;;;;;;11.23;10.13;;;;;;;17.14;97.20;100754.31;5209893;28;20030;-65
2022/08/14 06:33:00;;;;;;;13.60;11.20;;;;;;;17.16;100.00;100747.78;5204489;28;20036;-65
2022/08/14 06:35:31;;;;;;;14.38;10.38;;;;;;;17.25;97.43;100740.53;5204767;28;20030;-65
2022/08/14 06:38:03;;;;;;;13.25;11.18;;;;;;;17.30;99.23;100748.16;5208073;28;20430;-64
2022/08/14 06:40:36;;;;;;;12.05;10.77;;;;;;;17.36;100.00;100750.19;5208748;28;20029;-66
2022/08/14 06:43:10;;;;;;;14.02;10.80;;;;;;;17.44;100.00;100747.50;5198768;28;20050;-65
2022/08/14 06:45:42;;;;;;;;;;;;;;;17.50;97.54;100746.00;5200873;28;20033;-65
2022/08/14 06:48:15;;;;;;;12.93;9.30;;;;;;;17.68;96.35;100738.63;5202952;28;19917;-66
2022/08/14 06:50:46;;;;;;;12.25;9.90;;;;;;;17.88;94.03;100736.47;5204580;28;20034;-66
2022/08/14 06:53:18;;;;;;;11.38;10.23;;;;;;;17.92;96.39;100742.38;5203049;28;20045;-66
2022/08/14 06:55:50;;;;;;;10.65;9.55;;;;;;;18.05;94.32;100741.88;5197408;28;20030;-65
2022/08/14 06:58:21;;;;;;;11.63;9.70;;;;;;;18.11;94.54;100739.34;5203678;28;20022;-66
2022/08/14 07:06:33;;;;;;;10.40;8.70;;;;;;;18.67;88.75;100727.78;5201044;28;20033;-66
2022/08/14 07:09:04;;;;;;;9.60;7.97;;;;;;;18.81;86.83;100724.38;5202358;28;20026;-65
2022/08/14 07:11:36;;;;;;;8.77;7.88;;;;;;;18.85;88.83;100728.44;5202381;28;20045;-66
2022/08/14 07:14:07;;;;;;;11.85;8.25;;;;;;;19.24;84.82;100722.16;5201330;28;20546;-65
2022/08/14 07:16:38;;;;;;;9.32;8.35;;;;;;;19.49;82.72;100727.44;5203229;28;20044;-66
2022/08/14 07:19:10;;;;;;;10.15;8.10;;;;;;;19.50;82.60;100718.28;5199473;28;20030;-66
2022/08/14 07:21:41;;;;;;;8.27;7.10;;;;;;;19.65;80.76;100723.78;5202713;28;20041;-65
2022/08/14 07:24:12;;;;;;;8.05;6.97;;;;;;;19.81;80.68;100728.25;5201250;28;20045;-66
2022/08/14 07:26:44;;;;;;;9.43;7.03;;;;;;;19.98;80.16;100737.94;5202026;28;20162;-66
2022/08/14 07:29:15;;;;;;;9.52;7.22;;;;;;;20.15;79.40;100735.94;5203065;28;20022;-65
2022/08/14 07:31:46;;;;;;;10.93;7.10;;;;;;;20.25;78.34;100735.66;5197871;28;20030;-66
2022/08/14 07:34:17;;;;;;;7.68;6.88;;;;;;;20.41;78.49;100724.69;5193912;28;20037;-65
2022/08/14 07:36:49;;;;;;;8.25;6.57;;;;;;;20.67;74.42;100721.56;5202670;28;20087;-65
2022/08/14 07:39:20;;;;;;;7.80;6.70;;;;;;;20.88;75.26;100722.66;5208321;28;20037;-66
2022/08/14 07:41:51;;;;;;;7.00;6.25;;;;;;;20.99;74.72;100722.19;5203488;28;20049;-66
2022/08/14 07:44:22;;;;;;;7.80;6.38;;;;;;;21.18;74.13;100723.47;5206248;28;20021;-66
2022/08/14 07:46:54;;;;;;;8.65;6.18;;;;;;;21.30;72.66;100719.22;5208583;28;20038;-66
2022/08/14 07:49:26;;;;;;;8.13;6.97;;;;;;;21.46;73.00;100722.78;5205248;28;20137;-66
2022/08/14 07:51:58;;;;;;;6.75;5.90;;;;;;;21.45;72.80;100716.50;5211070;28;20056;-66
2022/08/14 07:54:30;;;;;;;7.95;6.18;;;;;;;21.74;70.73;100723.69;5206767;28;20022;-66
2022/08/14 07:57:01;;;;;;;8.02;6.35;;;;;;;21.61;72.11;100720.88;5205152;28;20030;-66
2022/08/14 07:59:33;;;;;;;8.70;6.63;;;;;;;22.05;68.33;100733.41;5211013;28;20043;-66
2022/08/14 08:02:05;;;;;;;8.18;6.35;;;;;;;22.19;66.47;100725.38;5207150;28;20033;-66
2022/08/14 08:04:41;;;;;;;6.88;6.10;;;;;;;22.12;70.80;100725.28;5203262;28;20502;-65
2022/08/14 08:07:13;;;;;;;8.57;5.97;;;;;;;22.34;67.09;100726.16;5207820;28;20527;-65
2022/08/14 08:09:55;;;;;;;6.97;5.93;;;;;;;22.51;67.26;100722.09;5208051;28;20025;-65
2022/08/14 08:12:27;;;;;;;7.28;5.70;;;;;;;22.58;65.95;100730.25;5207099;28;20116;-65
2022/08/14 08:14:59;;;;;;;7.25;6.07;;;;;;;22.60;67.61;100724.63;5208266;28;20026;-65
2022/08/14 08:17:32;;;;;;;8.70;6.50;;;;;;;22.83;65.65;100719.75;5208057;28;20030;-66
2022/08/14 08:20:04;;;;;;;7.50;5.90;;;;;;;23.12;63.32;100711.53;5208075;28;20029;-63
2022/08/14 08:22:37;;;;;;;6.68;5.88;;;;;;;23.19;61.09;100705.06;5211514;28;20030;-63
2022/08/14 08:25:09;;;;;;;10.45;7.00;;;;;;;23.26;62.64;100708.66;5208657;28;20443;-63
2022/08/14 08:27:40;;;;;;;21.05;8.63;;;;;;;23.30;64.52;100700.94;5210681;28;20108;-63
2022/08/14 08:30:12;;;;;;;8.82;6.20;;;;;;;23.57;61.30;100695.53;5210081;28;20112;-63
2022/08/14 08:32:44;;;;;;;8.32;5.93;;;;;;;23.85;59.44;100689.94;5211412;28;20050;-64
2022/08/14 08:35:19;;;;;;;7.45;5.68;;;;;;;23.75;58.49;100692.22;5210893;28;20032;-63
2022/08/14 08:37:59;;;;;;;8.73;5.25;;;;;;;24.03;59.72;100698.34;5204930;28;20468;-64
2022/08/14 08:40:40;;;;;;;9.30;5.50;;;;;;;24.19;58.46;100704.41;5206070;28;20087;-64
2022/08/14 08:43:26;;;;;;;8.10;5.88;;;;;;;24.18;59.05;100710.91;5199913;28;20056;-64
2022/08/14 08:46:19;;;;;;;8.13;6.40;;;;;;;24.27;58.92;100709.63;5204985;28;20038;-63
2022/08/14 08:48:53;;;;;;;6.78;5.82;;;;;;;24.35;57.98;100714.88;5205747;28;20153;-66
2022/08/14 08:51:31;;;;;;;7.25;5.70;;;;;;;24.60;53.89;100706.03;5211795;28;20790;-64
2022/08/14 08:54:13;;;;;;;6.97;5.45;;;;;;;24.75;56.25;100706.63;5208110;28;20037;-64
2022/08/14 08:56:46;;;;;;;6.85;5.40;;;;;;;24.92;55.14;100697.97;5211734;28;20460;-64
2022/08/14 08:59:23;;;;;;;8.05;5.43;;;;;;;25.00;53.07;100698.56;5204499;28;20388;-65
2022/08/14 09:02:05;;;;;;;7.80;5.57;;;;;;;25.12;53.51;100695.16;5206667;28;20106;-65
2022/08/14 09:04:43;;;;;;;6.72;5.38;;;;;;;25.10;53.57;100703.56;5211422;28;20029;-65
2022/08/14 09:07:14;;;;;;;7.05;5.50;;;;;;;25.47;51.42;100695.63;5210423;28;20029;-64
2022/08/14 09:09:51;;;;;;;6.05;5.10;;;;;;;25.70;51.02;100688.78;5207051;28;20041;-63
2022/08/14 09:12:23;;;;;;;6.85;5.22;;;;;;;25.67;51.14;100681.84;5210056;28;20108;-65
2022/08/14 09:14:55;;;;;;;7.53;5.40;;;;;;;25.69;52.55;100679.72;5209069;28;20586;-64
2022/08/14 09:17:27;;;;;;;7.80;5.10;;;;;;;25.69;49.13;100681.63;5210298;28;20487;-65
2022/08/14 09:19:58;;;;;;;8.95;5.35;;;;;;;25.72;48.02;100671.09;5211317;28;20033;-66
2022/08/14 09:22:30;;;;;;;5.18;4.57;;;;;;;25.94;47.73;100681.66;5208367;28;20025;-65
2022/08/14 09:25:02;;;;;;;5.20;4.53;;;;;;;26.14;46.87;100670.56;5212288;28;20094;-64
2022/08/14 09:27:36;;;;;;;5.95;4.30;;;;;;;26.18;46.01;100674.53;5210463;28;20052;-64
2022/08/14 09:30:09;;;;;;;5.55;4.22;;;;;;;26.32;47.78;100667.00;5206487;28;20113;-65
2022/08/14 09:33:44;;;;;;;6.60;4.85;;;;;;;26.34;49.07;100668.44;5213929;28;20097;-65
2022/08/14 09:36:46;;;;;;;6.28;5.13;;;;;;;26.53;48.85;100671.22;5147323;28;20035;-65
2022/08/14 09:39:37;;;;;;;6.03;4.55;;;;;;;26.60;48.45;100666.53;5143437;28;20509;-65
2022/08/14 09:42:22;;;;;;;4.60;4.10;;;;;;;26.87;46.56;100652.53;5199690;28;20503;-65
2022/08/14 09:45:17;;;;;;;6.28;4.32;;;;;;;27.03;47.46;100656.53;5210789;28;20086;-65
2022/08/14 09:47:51;;;;;;;5.60;5.00;;;;;;;27.10;46.99;100647.16;5205456;28;20040;-65
2022/08/14 09:50:43;;;;;;;5.47;4.63;;;;;;;27.12;47.75;100655.97;5211130;28;21535;-65
2022/08/14 09:53:17;;;;;;;5.43;4.22;;;;;;;27.29;47.25;100644.38;5203385;28;20030;-65
2022/08/14 09:55:57;;;;;;;4.38;3.80;;;;;;;27.15;46.26;100643.72;5206916;28;20025;-65
2022/08/14 09:58:41;;;;;;;5.72;4.68;;;;;;;27.28;47.58;100642.72;5211161;28;20064;-65
2022/08/14 10:01:14;;;;;;;;;;;;;;;27.18;50.56;100643.25;5208893;28;20067;-65
2022/08/14 10:03:51;;;;;;;5.57;4.47;;;;;;;27.54;46.96;100641.50;5211346;28;19928;-65
2022/08/14 10:06:24;;;;;;;7.40;4.30;;;;;;;27.72;46.33;100632.34;5207212;28;20141;-65
2022/08/14 10:09:05;;;;;;;6.38;5.03;;;;;;;27.89;47.09;100627.84;5211655;28;20022;-65
2022/08/14 10:11:38;;;;;;;8.70;5.15;;;;;;;27.87;47.51;100627.22;5208240;28;20037;-65
2022/08/14 10:14:18;;;;;;;7.25;4.60;;;;;;;28.09;45.93;100623.91;5209646;28;20033;-65
2022/08/14 10:16:53;;;;;;;6.65;5.10;;;;;;;27.91;47.04;100625.72;5209889;28;20037;-65
2022/08/14 10:19:29;;;;;;;8.10;4.95;;;;;;;27.78;47.65;100614.94;5213840;28;20042;-65
2022/08/14 10:22:02;;;;;;;8.40;5.50;;;;;;;28.11;45.95;100602.56;5208607;28;20038;-65
2022/08/14 10:24:39;;;;;;;6.63;4.97;;;;;;;28.27;48.05;100606.50;5210048;28;20045;-65
2022/08/14 10:27:17;;;;;;;6.28;4.95;;;;;;;28.10;47.80;100612.72;5209966;28;20087;-65
2022/08/14 10:29:51;;;;;;;7.78;5.32;;;;;;;28.34;45.10;100607.19;5208831;28;20063;-65
2022/08/14 10:32:24;;;;;;;7.03;4.93;;;;;;;28.43;44.44;100593.94;5206334;28;20378;-65
2022/08/14 10:35:07;;;;;;;5.68;5.07;;;;;;;28.60;45.33;100599.53;5210113;28;20038;-65
2022/08/14 10:37:46;;;;;;;5.22;4.72;;;;;;;28.66;44.47;100588.41;5209844;28;20044;-66
2022/08/14 10:40:30;;;;;;;6.95;5.20;;;;;;;28.65;46.89;100592.25;5207849;28;20038;-65
2022/08/14 10:43:02;;;;;;;7.10;5.07;;;;;;;28.87;46.24;100588.81;5207341;28;20621;-65
2022/08/14 10:45:33;;;;;;;8.25;5.50;;;;;;;28.97;46.07;100582.69;5205203;28;20479;-65
2022/08/14 10:48:16;;;;;;;6.90;4.88;;;;;;;29.03;44.37;100581.69;5209416;28;20155;-65
2022/08/14 10:50:50;;;;;;;8.23;5.40;;;;;;;28.97;43.40;100578.00;5209216;28;20045;-65
2022/08/14 10:53:30;;;;;;;6.10;5.10;;;;;;;29.10;44.38;100582.38;5198269;28;20037;-66
2022/08/14 10:56:07;;;;;;;5.55;4.80;;;;;;;29.19;42.91;100577.31;5205409;28;20044;-65
2022/08/14 10:58:38;;;;;;;5.55;4.60;;;;;;;29.22;42.37;100576.84;5200034;28;20038;-65
2022/08/14 11:01:11;;;;;;;5.82;4.63;;;;;;;29.22;43.31;100571.34;5218713;28;20033;-66
2022/08/14 11:03:42;;;;;;;6.07;4.60;;;;;;;29.28;43.55;100570.34;5209960;28;20038;-65
2022/08/14 11:06:21;;;;;;;7.78;4.45;;;;;;;29.48;41.71;100576.19;5209624;28;20041;-66
2022/08/14 11:08:53;;;;;;;6.00;4.30;;;;;;;29.42;42.25;100576.38;5208442;28;20022;-65
2022/08/14 11:11:26;;;;;;;6.72;4.38;;;;;;;29.55;40.80;100576.00;5211643;28;20491;-66
2022/08/14 11:13:57;;;;;;;6.38;4.45;;;;;;;29.54;41.38;100568.03;5208913;28;20487;-66
2022/08/14 11:16:29;;;;;;;5.65;4.38;;;;;;;29.85;39.71;100570.19;5203360;28;20026;-66
2022/08/14 11:19:02;;;;;;;11.75;4.70;;;;;;;29.59;41.27;100570.84;5206435;28;20026;-66
2022/08/14 11:21:39;;;;;;;7.18;4.30;;;;;;;29.97;40.34;100572.81;5210815;28;20033;-66
2022/08/14 11:24:13;;;;;;;6.80;3.90;;;;;;;30.07;41.42;100563.91;5207555;28;20035;-66
2022/08/14 11:26:44;;;;;;;7.53;4.10;;;;;;;30.07;39.90;100567.50;5207861;28;20037;-66
2022/08/14 11:29:20;;;;;;;7.18;4.18;;;;;;;29.89;41.60;100565.84;5205483;28;20026;-66
2022/08/14 11:31:54;;;;;;;5.22;4.30;;;;;;;30.19;39.53;100561.88;5206063;28;20492;-65
2022/08/14 11:34:25;;;;;;;6.00;4.93;;;;;;;30.14;39.77;100561.78;5209449;28;20038;-66
2022/08/14 11:36:56;;;;;;;7.80;4.82;;;;;;;30.07;40.81;100558.41;5206563;28;20033;-66
2022/08/14 11:39:28;;;;;;;5.18;4.40;;;;;;;29.95;41.38;100558.50;5208853;28;20065;-67
2022/08/14 11:42:02;;;;;;;5.05;4.55;;;;;;;29.90;40.21;100550.19;5208611;28;20049;-66
2022/08/14 11:44:33;;;;;;;5.93;4.75;;;;;;;30.26;39.83;100543.25;5203443;28;20392;-66
2022/08/14 11:47:05;;;;;;;5.05;4.28;;;;;;;30.19;39.63;100530.78;5207267;28;20029;-67
2022/08/14 11:49:37;;;;;;;7.07;4.43;;;;;;;30.22;39.28;100533.84;5202985;28;20029;-67
2022/08/14 11:52:08;;;;;;;4.80;4.30;;;;;;;30.18;40.89;100529.91;5204129;28;20044;-67
2022/08/14 11:54:40;;;;;;;7.82;4.68;;;;;;;30.29;38.75;100519.88;5206287;28;20034;-67
2022/08/14 11:57:16;;;;;;;4.95;4.45;;;;;;;30.04;41.39;100514.88;5207509;28;20034;-67
2022/08/14 11:59:47;;;;;;;7.10;4.80;;;;;;;30.21;37.69;100515.66;5204016;28;20042;-67
2022/08/14 12:02:18;;;;;;;5.53;3.97;;;;;;;30.35;38.87;100510.63;5203529;28;20543;-67
2022/08/14 12:04:52;;;;;;;4.43;3.83;;;;;;;30.23;38.63;100505.22;5205883;28;20435;-66